Time;durP1;ratioP1;P1;durP2;ratioP2;P2;SDS_P1;SDS_P2;PMS_P1;PMS_P2;Temp;Humidity;BMP_temperature;BMP_pressure;BME280_temperature;BME280_humidity;BME280_pressure;Samples;Min_cycle;Max_cycle;Signal;HPM_P1;HPM_P2
2022/04/21 00:00:39;;;;;;;5.77;4.07;;;;;;;;;;5020674;28;20225;-77
2022/04/21 00:03:07;;;;;;;4.40;4.00;;;;;;;;;;4972567;28;20220;-77
2022/04/21 00:05:35;;;;;;;5.23;3.77;;;;;;;;;;4984521;28;20225;-77
2022/04/21 00:08:03;;;;;;;4.43;4.00;;;;;;;;;;5010369;28;20323;-77
2022/04/21 00:10:28;;;;;;;4.43;3.80;;;;;;;;;;4995206;28;20701;-77
2022/04/21 00:12:56;;;;;;;5.47;4.00;;;;;;;;;;5022721;28;20737;-77
2022/04/21 00:15:22;;;;;;;6.53;3.87;;;;;;;;;;4984198;28;20225;-77
2022/04/21 00:17:48;;;;;;;9.60;4.20;;;;;;;;;;4994049;28;20312;-77
2022/04/21 00:20:20;;;;;;;5.80;4.00;;;;;;;;;;5014727;28;20212;-76
2022/04/21 00:25:30;;;;;;;5.97;4.37;;;;;;;;;;5028484;28;20217;-77
2022/04/21 00:27:55;;;;;;;5.00;4.50;;;;;;;;;;4988489;28;20225;-77
2022/04/21 00:30:21;;;;;;;4.63;4.10;;;;;;;;;;4986498;28;20229;-76
2022/04/21 00:32:46;;;;;;;4.87;4.23;;;;;;;;;;4998101;28;20217;-77
2022/04/21 00:35:15;;;;;;;4.57;4.17;;;;;;;;;;5013469;28;20270;-76
2022/04/21 00:37:56;;;;;;;6.10;4.47;;;;;;;;;;5013092;28;20721;-76
2022/04/21 00:40:29;;;;;;;5.83;4.27;;;;;;;;;;4996974;28;20220;-76
2022/04/21 00:42:57;;;;;;;5.83;4.60;;;;;;;;;;4981790;28;20250;-76
2022/04/21 00:45:29;;;;;;;5.20;4.37;;;;;;;;;;4991190;28;20220;-76
2022/04/21 00:47:58;;;;;;;5.40;4.60;;;;;;;;;;5030322;28;20704;-76
2022/04/21 00:50:25;;;;;;;6.17;4.57;;;;;;;;;;4991209;28;20233;-76
2022/04/21 00:52:52;;;;;;;5.83;4.93;;;;;;;;;;5013064;28;20237;-76
2022/04/21 00:55:17;;;;;;;6.17;5.03;;;;;;;;;;5012796;28;20757;-76
2022/04/21 00:57:43;;;;;;;6.40;5.00;;;;;;;;;;5013190;28;20277;-76
2022/04/21 01:00:09;;;;;;;5.37;4.60;;;;;;;;;;5013022;28;20254;-76
2022/04/21 01:02:46;;;;;;;6.03;4.60;;;;;;;;;;5009595;28;20235;-76
2022/04/21 01:05:17;;;;;;;5.00;4.37;;;;;;;;;;5028775;28;20229;-76
2022/04/21 01:07:46;;;;;;;7.13;5.20;;;;;;;;;;5029469;28;20230;-76
2022/04/21 01:10:15;;;;;;;6.80;4.90;;;;;;;;;;4976155;28;20221;-77
2022/04/21 01:12:40;;;;;;;5.67;4.90;;;;;;;;;;4998101;28;20216;-77
2022/04/21 01:15:06;;;;;;;6.50;4.80;;;;;;;;;;5013289;28;20694;-76
2022/04/21 01:17:35;;;;;;;6.03;5.07;;;;;;;;;;5007673;28;20229;-76
2022/04/21 01:20:03;;;;;;;5.23;4.73;;;;;;;;;;5013779;28;20242;-76
2022/04/21 01:22:29;;;;;;;5.43;4.80;;;;;;;;;;4964811;28;20641;-77
2022/04/21 01:24:58;;;;;;;5.70;4.63;;;;;;;;;;4998519;28;20697;-77
2022/04/21 01:27:26;;;;;;;5.70;4.77;;;;;;;;;;4964244;28;20600;-77
2022/04/21 01:29:54;;;;;;;7.50;4.73;;;;;;;;;;4996492;28;20295;-77
2022/04/21 01:32:24;;;;;;;6.23;4.87;;;;;;;;;;4996192;28;20228;-78
2022/04/21 01:34:52;;;;;;;6.53;5.00;;;;;;;;;;5034780;28;20243;-77
2022/04/21 01:42:51;;;;;;;5.00;4.50;;;;;;;;;;5023735;28;20216;-77
2022/04/21 01:45:16;;;;;;;6.40;4.53;;;;;;;;;;5012440;28;20331;-78
2022/04/21 01:47:44;;;;;;;4.33;3.93;;;;;;;;;;4998684;28;20231;-78
2022/04/21 01:50:12;;;;;;;6.37;4.43;;;;;;;;;;5031132;28;20229;-78
2022/04/21 01:52:38;;;;;;;5.77;4.60;;;;;;;;;;4994699;28;20279;-78
2022/04/21 01:55:06;;;;;;;6.17;4.60;;;;;;;;;;5030882;28;20224;-78
2022/04/21 01:57:41;;;;;;;5.07;4.40;;;;;;;;;;5014790;28;20217;-77
2022/04/21 02:00:12;;;;;;;5.27;4.77;;;;;;;;;;4996789;28;20634;-77
2022/04/21 02:02:39;;;;;;;5.23;3.97;;;;;;;;;;4997851;28;21663;-77
2022/04/21 02:05:07;;;;;;;4.67;4.27;;;;;;;;;;4986407;28;20220;-77
2022/04/21 02:07:36;;;;;;;4.40;4.00;;;;;;;;;;4978628;28;20760;-77
2022/04/21 02:10:05;;;;;;;5.20;4.07;;;;;;;;;;4981129;28;20228;-77
2022/04/21 02:12:33;;;;;;;6.20;4.10;;;;;;;;;;5014004;28;20225;-77
2022/04/21 02:15:02;;;;;;;5.73;4.53;;;;;;;;;;5015844;28;20225;-77
2022/04/21 02:17:28;;;;;;;6.00;5.40;;;;;;;;;;5029474;28;20690;-77
2022/04/21 02:19:56;;;;;;;5.20;4.70;;;;;;;;;;4989209;28;20237;-76
2022/04/21 02:22:22;;;;;;;5.87;4.60;;;;;;;;;;4995600;28;20209;-77
2022/04/21 02:24:47;;;;;;;5.57;4.53;;;;;;;;;;5003513;28;20747;-76
2022/04/21 02:27:19;;;;;;;5.73;4.30;;;;;;;;;;5012851;28;20224;-77
2022/04/21 02:29:45;;;;;;;5.03;4.47;;;;;;;;;;5019782;28;20224;-77
2022/04/21 02:32:12;;;;;;;5.17;4.17;;;;;;;;;;5006237;28;20232;-76
2022/04/21 02:34:41;;;;;;;5.33;4.47;;;;;;;;;;4992978;28;20771;-77
2022/04/21 02:37:09;;;;;;;5.47;4.57;;;;;;;;;;5031674;28;20216;-77
2022/04/21 02:39:37;;;;;;;5.00;4.50;;;;;;;;;;4992703;28;20259;-77
2022/04/21 02:42:05;;;;;;;5.77;4.53;;;;;;;;;;5036385;28;20304;-77
2022/04/21 02:44:31;;;;;;;5.93;4.50;;;;;;;;;;5010841;28;20232;-77
2022/04/21 02:47:01;;;;;;;5.53;4.80;;;;;;;;;;4977004;28;20220;-77
2022/04/21 02:49:32;;;;;;;5.10;4.47;;;;;;;;;;4996278;28;20228;-76
2022/04/21 02:52:00;;;;;;;5.10;4.53;;;;;;;;;;5024368;28;20685;-76
2022/04/21 02:57:20;;;;;;;6.40;4.53;;;;;;;;;;5027916;28;20239;-76
2022/04/21 02:59:52;;;;;;;6.07;5.20;;;;;;;;;;4998531;28;20607;-76
2022/04/21 03:02:23;;;;;;;5.53;4.17;;;;;;;;;;5010181;28;20208;-77
2022/04/21 03:04:49;;;;;;;5.33;4.83;;;;;;;;;;5011122;28;20289;-77
2022/04/21 03:07:17;;;;;;;6.97;4.73;;;;;;;;;;5013874;28;20226;-77
2022/04/21 03:09:43;;;;;;;4.90;4.40;;;;;;;;;;5010145;28;20220;-76
2022/04/21 03:12:09;;;;;;;6.60;5.00;;;;;;;;;;4991478;28;20265;-77
2022/04/21 03:14:36;;;;;;;5.70;5.20;;;;;;;;;;5014698;28;20224;-77
2022/04/21 03:17:02;;;;;;;6.50;5.27;;;;;;;;;;4992234;28;20612;-76
2022/04/21 03:19:29;;;;;;;6.77;5.33;;;;;;;;;;4982826;28;20225;-77
2022/04/21 03:24:39;;;;;;;5.97;5.23;;;;;;;;;;4999697;28;20320;-77
2022/04/21 03:27:05;;;;;;;5.83;5.33;;;;;;;;;;5012657;28;20225;-76
2022/04/21 03:29:31;;;;;;;6.10;5.50;;;;;;;;;;4997439;28;20244;-76
2022/04/21 03:31:56;;;;;;;5.30;4.80;;;;;;;;;;5027536;28;20224;-76
2022/04/21 03:34:26;;;;;;;6.63;5.57;;;;;;;;;;5011397;28;20223;-77
2022/04/21 03:36:51;;;;;;;7.77;5.80;;;;;;;;;;5008800;28;20322;-76
2022/04/21 03:39:18;;;;;;;7.97;5.70;;;;;;;;;;4993618;28;20333;-77
2022/04/21 03:41:44;;;;;;;7.57;5.37;;;;;;;;;;5010016;28;20685;-75
2022/04/21 03:44:12;;;;;;;7.00;5.97;;;;;;;;;;5000675;28;20343;-76
2022/04/21 03:46:40;;;;;;;9.33;5.93;;;;;;;;;;5010240;28;20277;-77
2022/04/21 03:49:08;;;;;;;9.27;6.07;;;;;;;;;;4999492;28;20224;-76
2022/04/21 03:51:34;;;;;;;10.27;5.77;;;;;;;;;;5032682;28;20248;-76
2022/04/21 03:53:59;;;;;;;7.03;6.20;;;;;;;;;;4997454;28;20259;-78
2022/04/21 03:56:29;;;;;;;7.33;5.97;;;;;;;;;;4996113;28;20228;-77
2022/04/21 03:58:57;;;;;;;7.27;6.13;;;;;;;;;;4993731;28;20222;-77
2022/04/21 04:01:23;;;;;;;9.43;6.60;;;;;;;;;;4992946;28;20236;-77
2022/04/21 04:03:49;;;;;;;6.83;6.13;;;;;;;;;;5013073;28;20640;-77
2022/04/21 04:12:02;;;;;;;7.57;5.97;;;;;;;;;;5018921;28;20248;-78
2022/04/21 04:14:30;;;;;;;10.70;7.10;;;;;;;;;;5020939;28;20224;-77
2022/04/21 04:16:56;;;;;;;9.60;7.13;;;;;;;;;;4996113;28;20359;-76
2022/04/21 04:19:21;;;;;;;8.47;6.63;;;;;;;;;;4998858;28;20224;-77
2022/04/21 04:21:47;;;;;;;9.90;7.17;;;;;;;;;;5015610;28;20884;-77
2022/04/21 04:24:12;;;;;;;9.50;6.87;;;;;;;;;;5014671;28;20610;-77
2022/04/21 04:26:38;;;;;;;7.97;7.07;;;;;;;;;;4999284;28;20252;-78
2022/04/21 04:29:06;;;;;;;10.63;7.00;;;;;;;;;;4999549;28;20208;-78
2022/04/21 04:31:33;;;;;;;8.97;7.20;;;;;;;;;;4978447;28;20608;-78
2022/04/21 04:33:59;;;;;;;10.67;8.03;;;;;;;;;;5038082;28;20216;-78
2022/04/21 04:36:24;;;;;;;10.10;8.30;;;;;;;;;;5000599;28;20260;-78
2022/04/21 04:38:50;;;;;;;9.70;7.90;;;;;;;;;;5036143;28;20445;-77
2022/04/21 04:44:09;;;;;;;11.30;7.87;;;;;;;;;;5014474;28;20228;-77
2022/04/21 04:46:40;;;;;;;9.03;7.73;;;;;;;;;;5030259;28;20701;-78
2022/04/21 04:49:10;;;;;;;11.07;7.77;;;;;;;;;;4993193;28;20235;-78
2022/04/21 04:51:41;;;;;;;9.93;7.53;;;;;;;;;;5043867;28;20637;-75
2022/04/21 04:54:10;;;;;;;9.40;8.40;;;;;;;;;;5009401;28;20521;-76
2022/04/21 04:56:36;;;;;;;8.57;7.53;;;;;;;;;;5014198;28;20228;-76
2022/04/21 04:59:02;;;;;;;8.83;7.90;;;;;;;;;;4990321;28;20329;-76
2022/04/21 05:01:39;;;;;;;11.27;7.80;;;;;;;;;;4979443;28;20232;-76
2022/04/21 05:04:06;;;;;;;8.87;7.50;;;;;;;;;;5035311;28;20628;-76
2022/04/21 05:06:42;;;;;;;10.03;8.07;;;;;;;;;;5005035;28;20307;-76
2022/04/21 05:09:11;;;;;;;11.20;8.03;;;;;;;;;;5004452;28;20216;-76
2022/04/21 05:11:39;;;;;;;10.20;7.37;;;;;;;;;;4988498;28;20239;-76
2022/04/21 05:14:07;;;;;;;9.17;7.50;;;;;;;;;;5002810;28;20314;-76
2022/04/21 05:16:33;;;;;;;9.23;8.13;;;;;;;;;;5012156;28;20243;-77
2022/04/21 05:19:03;;;;;;;8.93;7.57;;;;;;;;;;4997606;28;20224;-76
2022/04/21 05:21:32;;;;;;;10.30;8.37;;;;;;;;;;4996378;28;20260;-77
2022/04/21 05:24:01;;;;;;;9.30;7.83;;;;;;;;;;4977688;28;20221;-76
2022/04/21 05:26:29;;;;;;;11.70;8.17;;;;;;;;;;4998310;28;20236;-77
2022/04/21 05:30:54;;;;;;;12.17;8.27;;;;;;;;;;4996655;28;20220;-78
2022/04/21 05:31:44;;;;;;;11.03;7.63;;;;;;;;;;5010097;28;20238;-76
2022/04/21 05:34:10;;;;;;;10.27;7.57;;;;;;;;;;4995150;28;20433;-77
2022/04/21 05:36:36;;;;;;;8.27;7.33;;;;;;;;;;5024598;28;20232;-75
2022/04/21 05:39:09;;;;;;;8.63;7.00;;;;;;;;;;5007016;28;20729;-76
2022/04/21 05:41:37;;;;;;;8.57;7.43;;;;;;;;;;4973237;28;20686;-75
2022/04/21 05:44:06;;;;;;;7.47;6.73;;;;;;;;;;4994667;28;20224;-76
2022/04/21 05:46:33;;;;;;;10.23;6.27;;;;;;;;;;5019755;28;20216;-75
2022/04/21 05:49:06;;;;;;;8.63;6.47;;;;;;;;;;4983437;28;20281;-77
2022/04/21 05:51:31;;;;;;;7.83;6.30;;;;;;;;;;4994685;28;20242;-77
2022/04/21 05:53:57;;;;;;;7.90;5.57;;;;;;;;;;4998202;28;20221;-76
2022/04/21 05:56:25;;;;;;;7.33;5.13;;;;;;;;;;4995903;28;20232;-77
2022/04/21 05:58:53;;;;;;;9.03;5.57;;;;;;;;;;5014613;28;20252;-76
2022/04/21 06:01:25;;;;;;;5.93;4.80;;;;;;;;;;4982448;28;20225;-76
2022/04/21 06:03:52;;;;;;;8.37;5.17;;;;;;;;;;4995925;28;20311;-76
2022/04/21 06:06:20;;;;;;;10.23;4.90;;;;;;;;;;5028371;28;20227;-75
2022/04/21 06:08:46;;;;;;;6.43;4.47;;;;;;;;;;5009198;28;20224;-75
2022/04/21 06:11:13;;;;;;;4.60;4.10;;;;;;;;;;5013066;28;20231;-76
2022/04/21 06:13:41;;;;;;;6.20;4.07;;;;;;;;;;5021632;28;20216;-76
2022/04/21 06:16:07;;;;;;;5.70;3.73;;;;;;;;;;4986292;28;20709;-78
2022/04/21 06:18:36;;;;;;;5.10;3.77;;;;;;;;;;5024028;28;20224;-77
2022/04/21 06:21:01;;;;;;;4.53;4.03;;;;;;;;;;4994723;28;20225;-77
2022/04/21 06:23:27;;;;;;;4.73;3.40;;;;;;;;;;4963796;28;20319;-76
2022/04/21 06:25:58;;;;;;;6.27;3.83;;;;;;;;;;4986087;28;20212;-76
2022/04/21 06:28:27;;;;;;;6.60;3.63;;;;;;;;;;4999524;28;20315;-76
2022/04/21 06:30:55;;;;;;;4.50;3.30;;;;;;;;;;4989137;28;20216;-75
2022/04/21 06:33:23;;;;;;;6.77;3.53;;;;;;;;;;4992131;28;20227;-75
2022/04/21 06:35:48;;;;;;;5.93;3.73;;;;;;;;;;4996077;28;20278;-76
2022/04/21 06:38:16;;;;;;;4.17;3.53;;;;;;;;;;5009954;28;20209;-77
2022/04/21 06:40:41;;;;;;;4.07;3.37;;;;;;;;;;5009252;28;20220;-75
2022/04/21 06:48:45;;;;;;;5.50;3.27;;;;;;;;;;5011207;28;20228;-76
2022/04/21 06:51:11;;;;;;;5.90;3.77;;;;;;;;;;5013193;28;20217;-74
2022/04/21 06:53:42;;;;;;;5.43;3.40;;;;;;;;;;4989992;28;20281;-76
2022/04/21 06:56:08;;;;;;;5.53;3.63;;;;;;;;;;4986239;28;20231;-76
2022/04/21 06:58:36;;;;;;;4.37;3.47;;;;;;;;;;5026674;28;20219;-76
2022/04/21 07:01:04;;;;;;;4.40;3.50;;;;;;;;;;5030252;28;20589;-76
2022/04/21 07:03:29;;;;;;;4.50;2.97;;;;;;;;;;4962732;28;20229;-76
2022/04/21 07:05:57;;;;;;;5.17;3.47;;;;;;;;;;5011798;28;20286;-75
2022/04/21 07:08:23;;;;;;;5.50;3.10;;;;;;;;;;4993396;28;20302;-75
2022/04/21 07:10:48;;;;;;;5.67;3.03;;;;;;;;;;4992239;28;20760;-76
2022/04/21 07:13:14;;;;;;;4.77;3.10;;;;;;;;;;5040055;28;20220;-76
2022/04/21 07:15:42;;;;;;;5.07;3.30;;;;;;;;;;4999420;28;20761;-77
2022/04/21 07:18:08;;;;;;;5.87;3.03;;;;;;;;;;5029478;28;20246;-75
2022/04/21 07:20:36;;;;;;;4.43;2.77;;;;;;;;;;5021440;28;20231;-76
2022/04/21 07:23:04;;;;;;;3.37;2.97;;;;;;;;;;5000642;28;20706;-76
2022/04/21 07:25:33;;;;;;;5.60;2.80;;;;;;;;;;4987958;28;20232;-75
2022/04/21 07:28:00;;;;;;;5.63;2.83;;;;;;;;;;5000716;28;20227;-77
2022/04/21 07:30:26;;;;;;;4.63;2.70;;;;;;;;;;5012114;28;20772;-75
2022/04/21 07:32:51;;;;;;;4.23;2.70;;;;;;;;;;5021542;28;20224;-76
2022/04/21 07:35:18;;;;;;;5.50;3.10;;;;;;;;;;5013402;28;20728;-76
2022/04/21 07:37:44;;;;;;;7.70;3.00;;;;;;;;;;5023073;28;20262;-77
2022/04/21 07:40:12;;;;;;;4.40;3.00;;;;;;;;;;4995794;28;20601;-77
2022/04/21 07:42:37;;;;;;;4.27;2.83;;;;;;;;;;5003076;28;20220;-76
2022/04/21 07:45:06;;;;;;;5.00;3.00;;;;;;;;;;5001020;28;20270;-76
2022/04/21 07:47:34;;;;;;;3.13;2.87;;;;;;;;;;4997038;28;20245;-76
2022/04/21 07:49:59;;;;;;;4.77;3.13;;;;;;;;;;4989367;28;20227;-76
2022/04/21 07:55:26;;;;;;;3.87;2.90;;;;;;;;;;5002139;28;20235;-76
2022/04/21 07:57:53;;;;;;;3.30;2.80;;;;;;;;;;4999575;28;20392;-76
2022/04/21 08:00:21;;;;;;;3.00;2.70;;;;;;;;;;5000422;28;20649;-76
2022/04/21 08:02:47;;;;;;;4.00;2.90;;;;;;;;;;5018824;28;20223;-77
2022/04/21 08:05:16;;;;;;;3.13;2.60;;;;;;;;;;4981062;28;20209;-75
2022/04/21 08:07:44;;;;;;;5.70;2.67;;;;;;;;;;5004649;28;20694;-77
2022/04/21 08:10:13;;;;;;;5.40;2.73;;;;;;;;;;5015116;28;20219;-75
2022/04/21 08:12:43;;;;;;;4.80;2.80;;;;;;;;;;5014645;28;20227;-75
2022/04/21 08:15:17;;;;;;;4.37;2.57;;;;;;;;;;4995775;28;20221;-76
2022/04/21 08:17:42;;;;;;;3.63;2.23;;;;;;;;;;4992420;28;20304;-75
2022/04/21 08:20:10;;;;;;;4.83;2.43;;;;;;;;;;5001485;28;20231;-75
2022/04/21 08:22:41;;;;;;;3.87;2.50;;;;;;;;;;5000122;28;20220;-75
2022/04/21 08:33:24;;;;;;;2.93;2.10;;;;;;;;;;5022336;28;20224;-77
2022/04/21 08:35:57;;;;;;;2.20;1.90;;;;;;;;;;5029850;28;20239;-77
2022/04/21 08:38:23;;;;;;;2.77;2.10;;;;;;;;;;5018747;28;20289;-76
2022/04/21 08:40:55;;;;;;;3.50;2.13;;;;;;;;;;5014214;28;20705;-77
2022/04/21 08:43:24;;;;;;;4.83;2.80;;;;;;;;;;4991655;28;20730;-77
2022/04/21 08:45:50;;;;;;;2.67;1.67;;;;;;;;;;4991782;28;20215;-75
2022/04/21 08:48:17;;;;;;;3.50;1.80;;;;;;;;;;4990460;28;20217;-76
2022/04/21 08:50:42;;;;;;;3.00;2.10;;;;;;;;;;5018139;28;20243;-76
2022/04/21 08:53:09;;;;;;;3.17;1.90;;;;;;;;;;4995493;28;20299;-77
2022/04/21 08:55:35;;;;;;;3.50;2.00;;;;;;;;;;4985972;28;20233;-77
2022/04/21 08:58:03;;;;;;;2.30;1.80;;;;;;;;;;4981584;28;20257;-77
2022/04/21 09:00:31;;;;;;;2.27;1.60;;;;;;;;;;5012789;28;20249;-76
2022/04/21 09:03:02;;;;;;;3.10;1.70;;;;;;;;;;4996674;28;20259;-78
2022/04/21 09:05:29;;;;;;;2.33;1.80;;;;;;;;;;4978512;28;20331;-77
2022/04/21 09:07:58;;;;;;;3.60;1.93;;;;;;;;;;5014541;28;20586;-76
2022/04/21 09:10:28;;;;;;;2.10;1.57;;;;;;;;;;5001838;28;20281;-76
2022/04/21 09:12:59;;;;;;;3.17;1.87;;;;;;;;;;5000946;28;20225;-76
2022/04/21 09:15:30;;;;;;;2.30;2.10;;;;;;;;;;5015947;28;20665;-76
2022/04/21 09:18:17;;;;;;;2.63;2.00;;;;;;;;;;5015895;28;20224;-76
2022/04/21 09:20:45;;;;;;;2.10;1.47;;;;;;;;;;5002374;28;20227;-76
2022/04/21 09:23:15;;;;;;;2.20;2.00;;;;;;;;;;5024777;28;20311;-75
2022/04/21 09:25:46;;;;;;;3.13;1.77;;;;;;;;;;5000123;28;20308;-76
2022/04/21 09:28:30;;;;;;;5.37;2.03;;;;;;;;;;5032480;28;20235;-78
2022/04/21 09:30:59;;;;;;;2.80;1.70;;;;;;;;;;5020298;28;20614;-77
2022/04/21 09:33:31;;;;;;;1.97;1.70;;;;;;;;;;5006994;28;20224;-76
2022/04/21 09:36:01;;;;;;;3.50;1.80;;;;;;;;;;4982489;28;20234;-76
2022/04/21 09:38:29;;;;;;;3.57;1.87;;;;;;;;;;5015829;28;20220;-77
2022/04/21 09:40:55;;;;;;;2.28;1.90;;;;;;;;;;4982161;28;20304;-76
2022/04/21 09:43:32;;;;;;;4.18;2.10;;;;;;;;;;4996984;28;20232;-76
2022/04/21 09:46:16;;;;;;;2.15;1.85;;;;;;;;;;5000763;28;20234;-75
2022/04/21 09:48:43;;;;;;;4.03;2.10;;;;;;;;;;5008086;28;20699;-76
2022/04/21 09:51:33;;;;;;;3.65;1.90;;;;;;;;;;4982404;28;20748;-77
2022/04/21 09:54:03;;;;;;;3.72;1.80;;;;;;;;;;4986820;28;20809;-76
2022/04/21 09:56:37;;;;;;;3.30;1.70;;;;;;;;;;5014820;28;20721;-76
2022/04/21 09:59:07;;;;;;;2.58;1.63;;;;;;;;;;5033637;28;20227;-77
2022/04/21 10:01:38;;;;;;;2.17;1.85;;;;;;;;;;4996235;28;20227;-75
2022/04/21 10:04:07;;;;;;;3.88;1.85;;;;;;;;;;5001360;28;20265;-74
2022/04/21 10:06:36;;;;;;;3.20;1.98;;;;;;;;;;4993613;28;20224;-76
2022/04/21 10:09:02;;;;;;;2.58;1.60;;;;;;;;;;5015821;28;20229;-77
2022/04/21 10:11:28;;;;;;;2.22;1.70;;;;;;;;;;5015770;28;20717;-78
2022/04/21 10:13:55;;;;;;;3.13;1.80;;;;;;;;;;5011512;28;20229;-78
2022/04/21 10:16:26;;;;;;;2.33;1.67;;;;;;;;;;5024284;28;20375;-77
2022/04/21 10:18:54;;;;;;;4.85;1.90;;;;;;;;;;5003080;28;20221;-77
2022/04/21 10:21:32;;;;;;;7.25;2.00;;;;;;;;;;5014602;28;20235;-76
2022/04/21 10:23:58;;;;;;;2.17;1.80;;;;;;;;;;5023978;28;20306;-76
2022/04/21 10:26:42;;;;;;;2.90;1.65;;;;;;;;;;4964152;28;20670;-77
2022/04/21 10:29:22;;;;;;;2.90;1.83;;;;;;;;;;5006742;28;20228;-76
2022/04/21 10:32:00;;;;;;;4.18;2.20;;;;;;;;;;5016820;28;20221;-77
2022/04/21 10:34:42;;;;;;;2.70;1.63;;;;;;;;;;4999332;28;20228;-78
2022/04/21 10:37:11;;;;;;;4.35;1.90;;;;;;;;;;5007688;28;20323;-77
2022/04/21 10:39:37;;;;;;;3.08;2.10;;;;;;;;;;5008490;28;20223;-76
2022/04/21 10:42:18;;;;;;;1.88;1.55;;;;;;;;;;4990833;28;20228;-75
2022/04/21 10:44:59;;;;;;;2.03;1.60;;;;;;;;;;4986224;28;20220;-75
2022/04/21 10:47:37;;;;;;;4.88;2.10;;;;;;;;;;4999185;28;20311;-77
2022/04/21 10:50:12;;;;;;;4.03;1.75;;;;;;;;;;4993017;28;20227;-76
2022/04/21 10:57:55;;;;;;;3.88;1.77;;;;;;;;;;5017248;28;20224;-78
2022/04/21 11:00:27;;;;;;;2.22;2.00;;;;;;;;;;4983476;28;20597;-76
2022/04/21 11:03:08;;;;;;;3.80;2.00;;;;;;;;;;4996967;28;20235;-76
2022/04/21 11:05:37;;;;;;;4.72;2.00;;;;;;;;;;5019346;28;20226;-75
2022/04/21 11:08:14;;;;;;;4.15;1.90;;;;;;;;;;5007042;28;20223;-76
2022/04/21 11:10:39;;;;;;;3.08;1.90;;;;;;;;;;5020131;28;20255;-76
2022/04/21 11:13:08;;;;;;;4.82;1.90;;;;;;;;;;5016060;28;20247;-75
2022/04/21 11:15:37;;;;;;;3.95;1.90;;;;;;;;;;4999281;28;20307;-76
2022/04/21 11:18:10;;;;;;;3.40;1.90;;;;;;;;;;5007363;28;20254;-75
2022/04/21 11:20:44;;;;;;;4.53;2.15;;;;;;;;;;5017121;28;20576;-77
2022/04/21 11:23:21;;;;;;;3.15;1.70;;;;;;;;;;4972367;28;20227;-77
2022/04/21 11:25:50;;;;;;;2.78;1.75;;;;;;;;;;4973605;28;20212;-76
2022/04/21 11:28:23;;;;;;;2.15;1.60;;;;;;;;;;5013935;28;20558;-77
2022/04/21 11:30:48;;;;;;;2.63;1.60;;;;;;;;;;5019020;28;20321;-77
2022/04/21 11:33:16;;;;;;;5.85;1.65;;;;;;;;;;5005913;28;20303;-77
2022/04/21 11:35:42;;;;;;;3.08;1.50;;;;;;;;;;5002455;28;20228;-76
2022/04/21 11:38:11;;;;;;;2.70;1.52;;;;;;;;;;5024543;28;20218;-77
2022/04/21 11:40:40;;;;;;;1.95;1.80;;;;;;;;;;4976916;28;20238;-75
2022/04/21 11:43:15;;;;;;;2.38;1.50;;;;;;;;;;4959293;28;20236;-76
2022/04/21 11:45:56;;;;;;;2.92;1.80;;;;;;;;;;5002459;28;20590;-75
2022/04/21 11:48:33;;;;;;;3.67;1.65;;;;;;;;;;5013675;28;20227;-76
2022/04/21 11:50:59;;;;;;;4.20;1.67;;;;;;;;;;5017378;28;20255;-76
2022/04/21 11:53:27;;;;;;;3.20;1.70;;;;;;;;;;4989921;28;20216;-75
2022/04/21 11:55:53;;;;;;;4.38;1.77;;;;;;;;;;4972515;28;20368;-75
2022/04/21 11:58:47;;;;;;;2.67;1.85;;;;;;;;;;4987460;28;20211;-78
2022/04/21 12:06:49;;;;;;;2.53;1.42;;;;;;;;;;5008194;28;20803;-75
2022/04/21 12:09:16;;;;;;;4.57;1.75;;;;;;;;;;4977274;28;20716;-77
2022/04/21 12:11:47;;;;;;;3.20;1.70;;;;;;;;;;4997059;28;20451;-76
2022/04/21 12:14:16;;;;;;;4.68;2.00;;;;;;;;;;5019894;28;20595;-77
2022/04/21 12:16:50;;;;;;;2.53;1.55;;;;;;;;;;4996660;28;20283;-75
2022/04/21 12:19:16;;;;;;;2.80;1.63;;;;;;;;;;5005585;28;20260;-75
2022/04/21 12:21:56;;;;;;;1.80;1.52;;;;;;;;;;5017089;28;20225;-75
2022/04/21 12:24:35;;;;;;;3.65;1.80;;;;;;;;;;5006220;28;20882;-78
2022/04/21 12:27:10;;;;;;;2.42;1.70;;;;;;;;;;4957207;28;20221;-77
2022/04/21 12:29:51;;;;;;;2.13;1.73;;;;;;;;;;5004324;28;20728;-77
2022/04/21 12:32:22;;;;;;;4.65;1.70;;;;;;;;;;5004113;28;20624;-77
2022/04/21 12:34:48;;;;;;;3.92;1.88;;;;;;;;;;5002773;28;20220;-75
2022/04/21 12:37:13;;;;;;;2.88;1.67;;;;;;;;;;4987815;28;20301;-75
2022/04/21 12:39:39;;;;;;;4.72;1.90;;;;;;;;;;5003466;28;20861;-74
2022/04/21 12:42:04;;;;;;;2.30;1.60;;;;;;;;;;5000331;28;20742;-74
2022/04/21 12:44:30;;;;;;;3.45;1.90;;;;;;;;;;5002064;28;20631;-75
2022/04/21 12:46:57;;;;;;;2.15;1.60;;;;;;;;;;5004260;28;20225;-75
2022/04/21 12:49:44;;;;;;;2.47;1.63;;;;;;;;;;4987813;28;20998;-76
2022/04/21 12:52:09;;;;;;;2.50;1.70;;;;;;;;;;5019596;28;20238;-77
2022/04/21 12:54:35;;;;;;;4.75;1.92;;;;;;;;;;5004349;28;20209;-75
2022/04/21 12:57:00;;;;;;;2.55;1.52;;;;;;;;;;4990345;28;20322;-76
2022/04/21 12:59:28;;;;;;;3.40;1.63;;;;;;;;;;4989361;28;20224;-76
2022/04/21 13:01:53;;;;;;;4.10;1.70;;;;;;;;;;5000676;28;20218;-77
2022/04/21 13:04:19;;;;;;;4.20;2.00;;;;;;;;;;5000788;28;20308;-75
2022/04/21 13:06:46;;;;;;;3.70;1.95;;;;;;;;;;5002858;28;20316;-74
2022/04/21 13:09:12;;;;;;;2.30;1.88;;;;;;;;;;5003995;28;20232;-76
2022/04/21 13:11:45;;;;;;;5.45;1.90;;;;;;;;;;5015518;28;20224;-73
2022/04/21 13:14:10;;;;;;;3.17;1.80;;;;;;;;;;5015003;28;20239;-73
2022/04/21 13:16:40;;;;;;;4.00;1.90;;;;;;;;;;5017884;28;20240;-73
2022/04/21 13:19:08;;;;;;;4.22;1.98;;;;;;;;;;5024935;28;20224;-77
2022/04/21 13:21:52;;;;;;;4.40;1.98;;;;;;;;;;5009284;28;20274;-77
2022/04/21 13:24:38;;;;;;;3.35;2.10;;;;;;;;;;5016241;28;20251;-75
2022/04/21 13:27:09;;;;;;;2.60;2.05;;;;;;;;;;5018694;28;20220;-76
2022/04/21 13:29:36;;;;;;;5.55;2.30;;;;;;;;;;4985915;28;20705;-74
2022/04/21 13:34:46;;;;;;;2.90;2.10;;;;;;;;;;5006959;28;20634;-75
2022/04/21 13:37:11;;;;;;;3.95;2.33;;;;;;;;;;5017044;28;20236;-75
2022/04/21 13:39:38;;;;;;;4.90;2.17;;;;;;;;;;5022274;28;20232;-76
2022/04/21 13:42:10;;;;;;;4.80;2.70;;;;;;;;;;4990243;28;20886;-76
2022/04/21 13:44:36;;;;;;;3.35;2.40;;;;;;;;;;5027387;28;20220;-76
2022/04/21 13:47:03;;;;;;;5.95;2.50;;;;;;;;;;5025234;28;20291;-75
2022/04/21 13:49:29;;;;;;;3.67;2.70;;;;;;;;;;4970602;28;20864;-76
2022/04/21 13:51:54;;;;;;;4.85;2.55;;;;;;;;;;5026816;28;20224;-75
2022/04/21 13:54:20;;;;;;;3.30;2.50;;;;;;;;;;5004313;28;20325;-76
2022/04/21 13:56:48;;;;;;;3.42;2.72;;;;;;;;;;4999643;28;20233;-76
2022/04/21 13:59:17;;;;;;;3.65;2.80;;;;;;;;;;5023572;28;20594;-75
2022/04/21 14:01:47;;;;;;;4.47;2.65;;;;;;;;;;4992876;28;20258;-76
2022/04/21 14:04:14;;;;;;;4.30;2.90;;;;;;;;;;5003286;28;20606;-75
2022/04/21 14:06:40;;;;;;;3.63;2.50;;;;;;;;;;4975965;28;20690;-77
2022/04/21 14:09:06;;;;;;;3.13;2.75;;;;;;;;;;4987674;28;20246;-76
2022/04/21 14:11:34;;;;;;;2.92;2.70;;;;;;;;;;5022448;28;20224;-74
2022/04/21 14:14:00;;;;;;;3.83;2.80;;;;;;;;;;5006130;28;20224;-75
2022/04/21 14:16:26;;;;;;;4.50;2.60;;;;;;;;;;5017370;28;20250;-76
2022/04/21 14:18:51;;;;;;;3.10;2.78;;;;;;;;;;5034113;28;20281;-76
2022/04/21 14:21:20;;;;;;;4.20;3.08;;;;;;;;;;5035948;28;20326;-76
2022/04/21 14:23:47;;;;;;;4.03;3.20;;;;;;;;;;5022586;28;20225;-76
2022/04/21 14:26:15;;;;;;;5.57;3.30;;;;;;;;;;4983017;28;20705;-76
2022/04/21 14:28:45;;;;;;;5.57;3.00;;;;;;;;;;5000895;28;20605;-76
2022/04/21 14:31:13;;;;;;;3.55;3.10;;;;;;;;;;5005509;28;20228;-76
2022/04/21 14:33:41;;;;;;;3.65;2.83;;;;;;;;;;5040406;28;20223;-77
2022/04/21 14:36:08;;;;;;;5.40;3.30;;;;;;;;;;5024321;28;20232;-76
2022/04/21 14:44:07;;;;;;;5.67;3.20;;;;;;;;;;4991295;28;20226;-75
2022/04/21 14:46:39;;;;;;;4.65;3.28;;;;;;;;;;4990130;28;20302;-76
2022/04/21 14:49:08;;;;;;;4.90;3.17;;;;;;;;;;5023261;28;20224;-76
2022/04/21 14:51:36;;;;;;;8.00;3.38;;;;;;;;;;5003686;28;20224;-75
2022/04/21 14:54:02;;;;;;;5.90;3.35;;;;;;;;;;4988732;28;20608;-75
2022/04/21 14:56:28;;;;;;;6.68;3.47;;;;;;;;;;4984524;28;20232;-76
2022/04/21 14:58:56;;;;;;;4.35;3.28;;;;;;;;;;4998694;28;20643;-75
2022/04/21 15:01:23;;;;;;;3.63;2.97;;;;;;;;;;5015486;28;20319;-77
2022/04/21 15:03:49;;;;;;;4.78;2.90;;;;;;;;;;5023420;28;20256;-76
2022/04/21 15:06:14;;;;;;;4.68;2.75;;;;;;;;;;4966846;28;20221;-77
2022/04/21 15:08:42;;;;;;;5.30;2.90;;;;;;;;;;4999912;28;20260;-77
2022/04/21 15:11:08;;;;;;;6.45;2.88;;;;;;;;;;4978991;28;20244;-76
2022/04/21 15:13:42;;;;;;;5.22;2.78;;;;;;;;;;5039533;28;20224;-76
2022/04/21 15:16:08;;;;;;;5.78;3.20;;;;;;;;;;4978787;28;20589;-75
2022/04/21 15:18:34;;;;;;;4.85;3.10;;;;;;;;;;4975225;28;20303;-76
2022/04/21 15:21:03;;;;;;;5.28;3.08;;;;;;;;;;4984200;28;20231;-76
2022/04/21 15:23:30;;;;;;;4.55;3.25;;;;;;;;;;4999143;28;20220;-77
2022/04/21 15:25:58;;;;;;;3.97;3.33;;;;;;;;;;5015505;28;20224;-77
2022/04/21 15:28:23;;;;;;;4.75;3.08;;;;;;;;;;4984974;28;20219;-77
2022/04/21 15:30:49;;;;;;;4.45;3.15;;;;;;;;;;4988027;28;20612;-77
2022/04/21 15:33:16;;;;;;;3.25;2.70;;;;;;;;;;4982842;28;20265;-77
2022/04/21 15:35:43;;;;;;;3.38;2.75;;;;;;;;;;4998937;28;20360;-77
2022/04/21 15:38:08;;;;;;;3.60;2.60;;;;;;;;;;4984059;28;20349;-77
2022/04/21 15:40:36;;;;;;;3.67;2.75;;;;;;;;;;4985842;28;20712;-76
2022/04/21 15:43:12;;;;;;;3.13;2.17;;;;;;;;;;4987585;28;20311;-76
2022/04/21 15:45:37;;;;;;;2.72;2.30;;;;;;;;;;4979042;28;20232;-76
2022/04/21 15:48:03;;;;;;;4.20;2.58;;;;;;;;;;4986071;28;20295;-76
2022/04/21 15:50:29;;;;;;;3.15;2.50;;;;;;;;;;5015421;28;20279;-77